Aircraft
UPR1005 PR-QAA Citation
VABO
Vadodara Airport
VECC
Netaji Subhash Chandra Bose International Airport
Pilot:: Eber
Aircraft:: Cessna Citation CJ4
Alternate: VEBS
Network: ivao
FLIGHT DETAILS
Distance: 845nm Duration 02h 08m
Cruise Speed: Flight Level: 41000
Validation: Validated Type Charter
Flight Fuel
ZFW: 4495
Block Fuel/Initial FOB: 2663
Flight Fuel: 1152
Cargo
Passengers: 4
Cargo: 0
ROUTE
ROUTE: BEGON N895 BODAR G590 BPL A791 JJS JJS2A
REMARKS:
DATE
Date: 26-05-06
Departure Time: 1449
Cargo: 0
FLIGHT DETAILS
Crashed: No
Validator Comments: Validado por Claudenir
Flight Rating: 95
LANDING ANALYSIS
Landing wind: 20º/5 kt
Landing heading: 189º
Landing VS:: -109 ft/min
Landing IAS:: 112 kt
Landing Force G: 1.1 G
Landing Bank: -3
Landing Pitch: 0
Landing Flaps: 100
Navigation Lights: ON
Landing Lights: ON
Beacon Lights: ON
Strobe Lights: ON
viserfly

ALTITUDE CHART

viserfly

MAIN EVENTS

DATE EVENT IAS ALTITUDE
2026-05-06 14:41:19 FLYacars version 1.3.5 0 123
2026-05-06 14:41:19 Beacon Lights ON 0 123
2026-05-06 14:44:10 Taxi Lights ON 0 123
2026-05-06 14:44:11 Aircraft boarding in progress 0 123
2026-05-06 14:44:11 Navigation Lights ON 0 123
2026-05-06 14:44:11 Strobe Lights ON 0 123
2026-05-06 14:45:36 Starting Engine 2 0 123
2026-05-06 14:46:00 Starting Engine 1 0 123
2026-05-06 14:46:53 Aircraft taxiing to runway 8 123
2026-05-06 14:49:10 Landing Lights ON 4 123
2026-05-06 14:49:14 FLAPS 50% 3 123
2026-05-06 14:49:55 Detected Take-off roll, HDG 39, IAS 162kt, GS 165kt, G-force 1.2g, Pitch -2.8deg, Bank 0.1deg, Wind 069/05kt, Temp 34°C 162 128
2026-05-06 14:49:55 Airborne 162 128
2026-05-06 14:50:11 Gear UP, IAS 194kt, GS 194kt, ALT 406ft AGL 194 533
2026-05-06 14:50:16 FLAPS 0% 197kt, ALT 645ft 197 645
2026-05-06 14:52:44 Landing Lights OFF 208 10608
2026-05-06 14:52:44 Taxi Lights OFF 208 10608
2026-05-06 15:08:16 Aircraft on Top Of Climb at 42508ft, IAS 158kt, GS 362kt, HDG 83deg, TAT -54deg, WIND 287/46kt 158 42508
2026-05-06 16:18:26 FLAPS 50% 204kt, ALT 42511ft 204 42511
2026-05-06 16:18:38 FLAPS 0% 197kt, ALT 42542ft 197 42542
2026-05-06 16:30:37 Aircraft on Top Of Descent at 40497ft, IAS 236kt, GS 492kt, HDG 92deg, TAT -49deg, WIND 256/47kt 236 40497
2026-05-06 16:30:54 Overspeed flag 246 39703
2026-05-06 16:46:43 Landing Lights ON 240 9946
2026-05-06 16:46:44 Taxi Lights ON 240 9926
2026-05-06 16:55:03 Gear DOWN, IAS 217kt, GS 218kt, ALT 2219ft AGL 217 2247
2026-05-06 16:55:33 FLAPS 50% 183kt, ALT 1735ft 183 1735
2026-05-06 16:55:33 FLAPS 100% 183kt, ALT 1733ft 183 1733
2026-05-06 16:58:05 Landed at destination with a landing rate of -109fpm, G-force 1.1g, Pitch -0.3deg, Bank -2.5deg, HDG 189deg, IAS 112kt, GS 119kt, Wind 020/05kt, Temp 24°C 112 17
2026-05-06 16:58:24 Aircraft taxiing to apron 20 21
2026-05-06 17:01:16 Navigation Lights OFF 0 18
2026-05-06 17:01:16 Strobe Lights OFF 0 18
2026-05-06 17:01:19 Landing Lights OFF 0 18
2026-05-06 17:01:19 Taxi Lights OFF 0 18
2026-05-06 17:02:49 Engine 2 shutdown 0 18
2026-05-06 17:02:50 Engine 1 shutdown 0 18
2026-05-06 17:09:14 Aircraft at gate/stand, ground services are moving into position, disembarkation has begun. Remaining FOB 1511kg FLYacars v1.3.5 0 18
viserfly

ACARS DATA

DATE IAS GS ALTITUDE FUEL CONSUMED OAT FLIGHT STATUS
2026-05-06 14:41:49 0 0 123 0 36 BOARDING
2026-05-06 14:42:19 0 0 123 0 36 BOARDING
2026-05-06 14:42:49 0 0 123 0 36 BOARDING
2026-05-06 14:43:19 0 0 123 0 36 BOARDING
2026-05-06 14:43:49 0 0 123 0 36 BOARDING
2026-05-06 14:44:19 0 0 123 0 36 BOARDING
2026-05-06 14:44:49 0 0 123 0 36 BOARDING
2026-05-06 14:45:19 0 0 123 0 36 BOARDING
2026-05-06 14:45:49 0 2 123 0 35 PUSHBACK
2026-05-06 14:46:19 1 0 123 1 34 PUSHBACK
2026-05-06 14:46:49 2 2 123 2 34 PUSHBACK
2026-05-06 14:47:19 13 19 123 5 34 TAXI TO RUNWAY
2026-05-06 14:47:49 0 0 123 6 34 TAXI TO RUNWAY
2026-05-06 14:48:19 0 1 123 7 34 TAXI TO RUNWAY
2026-05-06 14:48:49 16 14 123 9 34 TAXI TO RUNWAY
2026-05-06 14:49:19 2 0 123 10 34 TAXI TO RUNWAY
2026-05-06 14:49:49 134 136 125 21 34 TAKEOFF
2026-05-06 14:50:19 188 185 949 33 34 ON FINAL
2026-05-06 14:50:49 211 222 2964 44 29 CLIMB
2026-05-06 14:51:19 208 228 5115 55 23 CLIMB
2026-05-06 14:51:49 208 234 7176 65 17 CLIMB
2026-05-06 14:52:19 208 242 9087 76 12 CLIMB
2026-05-06 14:52:49 208 250 10937 86 8 CLIMB
2026-05-06 14:53:19 208 257 12687 97 5 CLIMB
2026-05-06 14:53:49 208 265 14297 107 1 CLIMB
2026-05-06 14:54:19 208 273 15830 117 -1 CLIMB
2026-05-06 14:54:49 208 281 17300 127 -3 CLIMB
2026-05-06 14:55:19 208 289 18684 137 -6 CLIMB
2026-05-06 14:55:49 208 297 19995 146 -9 CLIMB
2026-05-06 14:56:19 208 305 21260 156 -11 CLIMB
2026-05-06 14:56:49 208 313 22469 165 -14 CLIMB
2026-05-06 14:57:19 208 322 23625 175 -16 CLIMB
2026-05-06 14:57:49 208 330 24739 184 -18 CLIMB
2026-05-06 14:58:19 208 337 25847 193 -19 CLIMB
2026-05-06 14:58:49 208 344 26919 202 -21 CLIMB
2026-05-06 14:59:19 208 350 27928 210 -22 CLIMB
2026-05-06 14:59:49 208 357 28859 219 -24 CLIMB
2026-05-06 15:00:19 204 359 29883 227 -25 CLIMB
2026-05-06 15:00:49 200 360 30890 235 -27 CLIMB
2026-05-06 15:01:19 196 374 31823 242 -29 CLIMB
2026-05-06 15:01:49 193 372 32776 250 -31 CLIMB
2026-05-06 15:02:19 188 371 33700 257 -33 CLIMB
2026-05-06 15:02:49 185 370 34571 264 -35 CLIMB
2026-05-06 15:03:19 182 371 35373 271 -36 CLIMB
2026-05-06 15:03:49 178 369 36195 277 -38 CLIMB
2026-05-06 15:04:19 175 368 36998 284 -41 CLIMB
2026-05-06 15:04:49 172 367 37798 290 -43 CLIMB
2026-05-06 15:05:19 169 365 38562 296 -45 CLIMB
2026-05-06 15:05:49 166 364 39315 303 -46 CLIMB
2026-05-06 15:06:19 163 362 40025 308 -48 CLIMB
2026-05-06 15:06:49 161 361 40724 314 -50 CLIMB
2026-05-06 15:07:19 159 358 41412 319 -52 CLIMB
2026-05-06 15:07:49 156 356 42089 325 -53 CLIMB
2026-05-06 15:08:19 159 363 42519 330 -54 ENROUTE
2026-05-06 15:08:49 169 382 42575 336 -55 ENROUTE
2026-05-06 15:09:19 176 395 42575 340 -55 ENROUTE
2026-05-06 15:09:49 180 404 42562 345 -55 ENROUTE
2026-05-06 15:10:19 184 412 42563 349 -55 ENROUTE
2026-05-06 15:10:49 187 418 42564 353 -55 ENROUTE
2026-05-06 15:11:19 190 423 42565 358 -55 ENROUTE
2026-05-06 15:11:49 193 428 42564 362 -55 ENROUTE
2026-05-06 15:12:19 194 432 42564 366 -54 ENROUTE
2026-05-06 15:12:49 196 436 42549 371 -54 ENROUTE
2026-05-06 15:13:19 197 438 42552 375 -54 ENROUTE
2026-05-06 15:13:49 199 441 42552 379 -54 ENROUTE
2026-05-06 15:14:19 200 443 42552 383 -54 ENROUTE
2026-05-06 15:14:49 201 444 42551 388 -54 ENROUTE
2026-05-06 15:15:19 202 446 42550 392 -54 ENROUTE
2026-05-06 15:15:49 202 447 42551 396 -54 ENROUTE
2026-05-06 15:16:19 203 448 42547 400 -54 ENROUTE
2026-05-06 15:16:49 204 449 42547 404 -54 ENROUTE
2026-05-06 15:17:19 204 450 42550 409 -54 ENROUTE
2026-05-06 15:17:49 204 450 42549 413 -54 ENROUTE
2026-05-06 15:18:19 204 451 42545 417 -54 ENROUTE
2026-05-06 15:18:49 205 451 42547 421 -54 ENROUTE
2026-05-06 15:19:19 205 452 42544 425 -54 ENROUTE
2026-05-06 15:19:49 205 452 42545 430 -54 ENROUTE
2026-05-06 15:20:19 205 453 42547 434 -54 ENROUTE
2026-05-06 15:20:49 205 453 42534 438 -54 ENROUTE
2026-05-06 15:21:19 205 454 42535 442 -54 ENROUTE
2026-05-06 15:21:49 205 454 42535 446 -54 ENROUTE
2026-05-06 15:22:19 205 454 42536 451 -54 ENROUTE
2026-05-06 15:22:49 205 454 42537 455 -54 ENROUTE
2026-05-06 15:23:19 205 455 42524 459 -54 ENROUTE
2026-05-06 15:23:49 205 455 42523 463 -54 ENROUTE
2026-05-06 15:24:19 205 455 42524 467 -54 ENROUTE
2026-05-06 15:24:49 205 455 42524 471 -54 ENROUTE
2026-05-06 15:25:19 205 455 42525 476 -54 ENROUTE
2026-05-06 15:25:49 205 455 42524 480 -54 ENROUTE
2026-05-06 15:26:19 205 455 42524 484 -54 ENROUTE
2026-05-06 15:26:49 205 455 42524 488 -54 ENROUTE
2026-05-06 15:27:19 205 455 42522 492 -54 ENROUTE
2026-05-06 15:27:49 205 456 42524 496 -54 ENROUTE
2026-05-06 15:28:19 204 456 42520 501 -54 ENROUTE
2026-05-06 15:28:49 204 456 42512 505 -54 ENROUTE
2026-05-06 15:29:19 205 456 42512 509 -54 ENROUTE
2026-05-06 15:29:49 205 457 42512 513 -54 ENROUTE
2026-05-06 15:30:19 205 457 42512 517 -54 ENROUTE
2026-05-06 15:30:49 205 457 42513 521 -54 ENROUTE
2026-05-06 15:31:19 205 457 42507 525 -54 ENROUTE
2026-05-06 15:31:49 205 457 42507 530 -54 ENROUTE
2026-05-06 15:32:19 205 457 42508 534 -54 ENROUTE
2026-05-06 15:32:49 205 457 42508 538 -54 ENROUTE
2026-05-06 15:33:19 205 457 42509 542 -54 ENROUTE
2026-05-06 15:33:49 205 457 42509 546 -54 ENROUTE
2026-05-06 15:34:19 205 457 42509 550 -54 ENROUTE
2026-05-06 15:34:49 205 457 42509 555 -54 ENROUTE
2026-05-06 15:35:19 205 457 42508 559 -54 ENROUTE
2026-05-06 15:35:49 205 457 42508 563 -54 ENROUTE
2026-05-06 15:36:19 204 458 42497 567 -54 ENROUTE
2026-05-06 15:36:49 204 458 42498 571 -54 ENROUTE
2026-05-06 15:37:19 204 458 42497 575 -54 ENROUTE
2026-05-06 15:37:49 204 458 42498 579 -54 ENROUTE
2026-05-06 15:38:19 204 458 42498 584 -54 ENROUTE
2026-05-06 15:38:49 205 458 42498 588 -54 ENROUTE
2026-05-06 15:39:19 204 458 42490 592 -53 ENROUTE
2026-05-06 15:39:49 204 458 42491 596 -53 ENROUTE
2026-05-06 15:40:19 204 459 42491 600 -53 ENROUTE
2026-05-06 15:40:49 205 459 42491 604 -53 ENROUTE
2026-05-06 15:41:19 205 459 42491 608 -53 ENROUTE
2026-05-06 15:41:49 205 459 42481 613 -53 ENROUTE
2026-05-06 15:42:19 205 459 42482 617 -53 ENROUTE
2026-05-06 15:42:49 205 459 42482 621 -53 ENROUTE
2026-05-06 15:43:19 205 459 42482 625 -53 ENROUTE
2026-05-06 15:43:49 205 459 42482 629 -53 ENROUTE
2026-05-06 15:44:19 205 460 42483 633 -53 ENROUTE
2026-05-06 15:44:49 205 459 42477 637 -53 ENROUTE
2026-05-06 15:45:19 205 459 42476 641 -53 ENROUTE
2026-05-06 15:45:49 204 459 42476 645 -53 ENROUTE
2026-05-06 15:46:19 204 459 42476 650 -53 ENROUTE
2026-05-06 15:46:49 204 459 42476 654 -53 ENROUTE
2026-05-06 15:47:19 205 458 42476 658 -53 ENROUTE
2026-05-06 15:47:49 205 458 42477 662 -53 ENROUTE
2026-05-06 15:48:19 205 458 42477 666 -53 ENROUTE
2026-05-06 15:48:49 204 457 42477 670 -53 ENROUTE
2026-05-06 15:49:19 204 457 42477 674 -53 ENROUTE
2026-05-06 15:49:49 205 457 42471 678 -53 ENROUTE
2026-05-06 15:50:19 204 457 42472 682 -53 ENROUTE
2026-05-06 15:50:49 204 456 42472 686 -53 ENROUTE
2026-05-06 15:51:19 204 456 42472 690 -53 ENROUTE
2026-05-06 15:51:49 204 456 42474 695 -53 ENROUTE
2026-05-06 15:52:19 205 456 42476 699 -53 ENROUTE
2026-05-06 15:52:49 205 455 42495 703 -53 ENROUTE
2026-05-06 15:53:19 205 455 42495 707 -53 ENROUTE
2026-05-06 15:53:49 205 455 42495 711 -53 ENROUTE
2026-05-06 15:54:19 205 454 42495 715 -53 ENROUTE
2026-05-06 15:54:49 204 454 42494 719 -53 ENROUTE
2026-05-06 15:55:19 205 454 42494 723 -53 ENROUTE
2026-05-06 15:55:49 204 454 42496 727 -53 ENROUTE
2026-05-06 15:56:19 204 454 42495 731 -53 ENROUTE
2026-05-06 15:56:49 204 454 42496 736 -53 ENROUTE
2026-05-06 15:57:19 204 454 42497 740 -53 ENROUTE
2026-05-06 15:57:49 204 453 42496 744 -53 ENROUTE
2026-05-06 15:58:19 204 453 42495 748 -53 ENROUTE
2026-05-06 15:58:49 204 453 42492 752 -53 ENROUTE
2026-05-06 15:59:19 204 453 42495 756 -53 ENROUTE
2026-05-06 15:59:49 204 453 42494 760 -53 ENROUTE
2026-05-06 16:00:19 204 453 42494 764 -53 ENROUTE
2026-05-06 16:00:49 204 453 42495 768 -53 ENROUTE
2026-05-06 16:01:19 204 453 42495 773 -53 ENROUTE
2026-05-06 16:01:49 204 453 42495 777 -53 ENROUTE
2026-05-06 16:02:19 204 453 42496 781 -53 ENROUTE
2026-05-06 16:02:49 204 453 42496 785 -53 ENROUTE
2026-05-06 16:03:19 205 453 42497 789 -53 ENROUTE
2026-05-06 16:03:49 205 453 42500 793 -53 ENROUTE
2026-05-06 16:04:19 205 453 42500 797 -53 ENROUTE
2026-05-06 16:04:49 205 452 42501 801 -53 ENROUTE
2026-05-06 16:05:19 205 452 42501 805 -53 ENROUTE
2026-05-06 16:05:49 205 452 42501 810 -53 ENROUTE
2026-05-06 16:06:19 205 452 42501 814 -53 ENROUTE
2026-05-06 16:06:49 205 452 42501 818 -53 ENROUTE
2026-05-06 16:07:19 205 452 42502 822 -53 ENROUTE
2026-05-06 16:07:49 205 452 42501 826 -53 ENROUTE
2026-05-06 16:08:19 204 451 42502 830 -53 ENROUTE
2026-05-06 16:08:49 205 452 42502 834 -53 ENROUTE
2026-05-06 16:09:19 205 451 42501 838 -53 ENROUTE
2026-05-06 16:09:49 204 451 42503 842 -53 ENROUTE
2026-05-06 16:10:19 204 451 42500 846 -53 ENROUTE
2026-05-06 16:10:49 204 450 42501 851 -53 ENROUTE
2026-05-06 16:11:19 204 450 42501 855 -53 ENROUTE
2026-05-06 16:11:49 205 450 42508 859 -53 ENROUTE
2026-05-06 16:12:19 205 449 42509 863 -53 ENROUTE
2026-05-06 16:12:49 205 449 42511 867 -53 ENROUTE
2026-05-06 16:13:19 204 448 42509 871 -53 ENROUTE
2026-05-06 16:13:49 204 448 42509 875 -53 ENROUTE
2026-05-06 16:14:19 204 448 42508 879 -53 ENROUTE
2026-05-06 16:14:49 204 448 42509 883 -53 ENROUTE
2026-05-06 16:15:19 204 448 42508 887 -53 ENROUTE
2026-05-06 16:15:49 204 449 42509 892 -53 ENROUTE
2026-05-06 16:16:19 204 448 42509 896 -53 ENROUTE
2026-05-06 16:16:49 204 448 42510 900 -53 ENROUTE
2026-05-06 16:17:19 205 448 42510 904 -53 ENROUTE
2026-05-06 16:17:49 204 448 42510 908 -53 ENROUTE
2026-05-06 16:18:19 204 448 42511 912 -53 ENROUTE
2026-05-06 16:18:49 197 435 42508 916 -53 ENROUTE
2026-05-06 16:19:19 198 437 42509 920 -53 ENROUTE
2026-05-06 16:19:49 199 439 42506 924 -53 ENROUTE
2026-05-06 16:20:19 201 441 42507 929 -53 ENROUTE
2026-05-06 16:20:49 201 442 42509 933 -53 ENROUTE
2026-05-06 16:21:19 202 443 42510 937 -53 ENROUTE
2026-05-06 16:21:49 202 444 42512 941 -53 ENROUTE
2026-05-06 16:22:19 202 445 42513 945 -53 ENROUTE
2026-05-06 16:22:49 203 445 42516 949 -53 ENROUTE
2026-05-06 16:23:19 204 445 42519 953 -53 ENROUTE
2026-05-06 16:23:49 204 446 42521 957 -53 ENROUTE
2026-05-06 16:24:19 204 446 42524 962 -53 ENROUTE
2026-05-06 16:24:49 204 446 42525 966 -53 ENROUTE
2026-05-06 16:25:19 204 446 42525 970 -53 ENROUTE
2026-05-06 16:25:49 204 446 42526 974 -53 ENROUTE
2026-05-06 16:26:19 204 447 42525 978 -53 ENROUTE
2026-05-06 16:26:49 204 447 42525 982 -53 ENROUTE
2026-05-06 16:27:19 204 447 42525 986 -53 ENROUTE
2026-05-06 16:27:49 204 448 42526 990 -53 ENROUTE
2026-05-06 16:28:19 204 448 42526 995 -53 ENROUTE
2026-05-06 16:28:49 204 448 42528 999 -53 ENROUTE
2026-05-06 16:29:19 204 448 42527 1003 -53 ENROUTE
2026-05-06 16:29:49 206 451 42414 1007 -53 DESCENT
2026-05-06 16:30:23 226 479 41189 1011 -50 DESCENT
2026-05-06 16:30:53 246 505 39767 1015 -47 DESCENT
2026-05-06 16:31:23 243 495 38448 1018 -44 DESCENT
2026-05-06 16:31:53 237 479 37178 1020 -41 DESCENT
2026-05-06 16:32:23 236 465 35839 1022 -38 DESCENT
2026-05-06 16:32:53 236 460 34537 1024 -35 DESCENT
2026-05-06 16:33:23 235 456 33309 1026 -32 DESCENT
2026-05-06 16:33:53 236 452 32018 1028 -30 DESCENT
2026-05-06 16:34:23 239 446 30751 1030 -27 DESCENT
2026-05-06 16:34:53 240 428 29665 1032 -25 DESCENT
2026-05-06 16:35:23 242 418 28572 1034 -24 DESCENT
2026-05-06 16:35:53 245 421 27443 1036 -22 DESCENT
2026-05-06 16:36:23 249 417 26254 1038 -20 DESCENT
2026-05-06 16:36:53 253 413 25030 1040 -18 DESCENT
2026-05-06 16:37:23 257 409 23807 1042 -16 DESCENT
2026-05-06 16:37:53 256 400 22770 1044 -14 DESCENT
2026-05-06 16:38:23 257 392 21713 1047 -12 DESCENT
2026-05-06 16:38:53 259 386 20633 1049 -10 DESCENT
2026-05-06 16:39:23 261 381 19534 1051 -8 DESCENT
2026-05-06 16:39:53 263 376 18427 1054 -6 DESCENT
2026-05-06 16:40:23 263 368 17438 1056 -4 DESCENT
2026-05-06 16:40:53 254 353 16814 1059 -3 DESCENT
2026-05-06 16:41:23 250 344 16174 1061 -2 DESCENT
2026-05-06 16:41:53 248 338 15527 1064 -1 DESCENT
2026-05-06 16:42:23 248 334 14882 1067 0 DESCENT
2026-05-06 16:42:53 245 327 14231 1069 0 DESCENT
2026-05-06 16:43:23 241 319 13666 1071 2 DESCENT
2026-05-06 16:43:53 236 312 13196 1074 2 DESCENT
2026-05-06 16:44:23 236 309 12643 1076 4 DESCENT
2026-05-06 16:44:53 237 307 12077 1079 5 DESCENT
2026-05-06 16:45:23 237 304 11511 1081 6 DESCENT
2026-05-06 16:45:53 238 302 10933 1083 7 DESCENT
2026-05-06 16:46:23 239 301 10350 1086 8 DESCENT
2026-05-06 16:46:53 241 300 9770 1088 9 DESCENT
2026-05-06 16:47:23 241 298 9226 1091 10 DESCENT
2026-05-06 16:47:53 242 296 8684 1093 11 DESCENT
2026-05-06 16:48:23 242 292 8139 1096 12 DESCENT
2026-05-06 16:48:53 238 284 7600 1097 14 DESCENT
2026-05-06 16:49:23 227 270 7317 1099 14 ENROUTE
2026-05-06 16:49:53 213 254 7287 1102 14 ENROUTE
2026-05-06 16:50:23 210 250 7205 1104 14 DESCENT
2026-05-06 16:50:53 224 262 6577 1106 15 DESCENT
2026-05-06 16:51:23 232 267 5848 1108 16 DESCENT
2026-05-06 16:51:53 238 270 5110 1109 17 DESCENT
2026-05-06 16:52:23 241 268 4361 1111 19 DESCENT
2026-05-06 16:52:53 220 244 4169 1112 19 ENROUTE
2026-05-06 16:53:23 222 243 3878 1115 19 DESCENT
2026-05-06 16:53:53 235 250 3213 1117 21 DESCENT
2026-05-06 16:54:23 216 222 3035 1118 21 DESCENT
2026-05-06 16:54:53 219 221 2435 1119 22 DESCENT
2026-05-06 16:55:23 191 190 1890 1120 23 DESCENT
2026-05-06 16:55:53 147 146 1480 1124 23 APPROACH
2026-05-06 16:56:23 138 136 1110 1128 24 APPROACH
2026-05-06 16:56:53 133 135 762 1133 24 ON FINAL
2026-05-06 16:57:23 132 139 419 1138 24 ON FINAL
2026-05-06 16:57:53 136 144 61 1143 24 ON FINAL
2026-05-06 16:58:23 23 29 21 1145 24 TAXI TO APRON
2026-05-06 16:58:53 0 0 21 1146 24 TAXI TO APRON
2026-05-06 16:59:23 12 14 20 1147 24 TAXI TO APRON
2026-05-06 16:59:53 11 12 19 1148 24 TAXI TO APRON
2026-05-06 17:00:23 0 0 18 1150 24 TAXI TO APRON
2026-05-06 17:00:53 0 0 18 1151 24 TAXI TO APRON
2026-05-06 17:01:23 0 0 18 1152 24 TAXI TO APRON
2026-05-06 17:01:53 0 0 18 1152 24 TAXI TO APRON
2026-05-06 17:02:23 0 0 18 1152 24 TAXI TO APRON
2026-05-06 17:02:53 0 0 18 1152 24 TAXI TO APRON
2026-05-06 17:03:23 0 0 18 1152 24 TAXI TO APRON
2026-05-06 17:03:53 0 0 18 1152 24 TAXI TO APRON
2026-05-06 17:04:23 0 0 18 1152 24 TAXI TO APRON
2026-05-06 17:04:53 0 0 18 1152 24 TAXI TO APRON
2026-05-06 17:05:23 0 0 18 1152 24 TAXI TO APRON
2026-05-06 17:05:53 0 0 18 1152 24 TAXI TO APRON
2026-05-06 17:06:23 0 0 18 1152 24 TAXI TO APRON
2026-05-06 17:06:53 0 0 18 1152 24 TAXI TO APRON
2026-05-06 17:07:23 0 0 18 1152 24 TAXI TO APRON
2026-05-06 17:07:53 0 0 18 1152 24 TAXI TO APRON
2026-05-06 17:08:23 0 0 18 1152 24 TAXI TO APRON
2026-05-06 17:08:53 0 0 18 1152 24 TAXI TO APRON
  • Join our VA!

    It has been 11 years of great learning, friendships, and stories.

  • Sign up now!